createdAt,value
2024-03-05T00:00:16.316Z,96926.94
2024-03-05T00:02:45.003Z,96928.41
2024-03-05T00:05:15.223Z,96928.19
2024-03-05T00:07:43.525Z,96933.22
2024-03-05T00:10:12.658Z,96924.00
2024-03-05T00:12:40.393Z,96929.25
2024-03-05T00:15:08.791Z,96929.03
2024-03-05T00:17:37.994Z,96924.00
2024-03-05T00:20:11.182Z,96925.34
2024-03-05T00:22:38.812Z,96917.91
2024-03-05T00:25:08.985Z,96924.63
2024-03-05T00:27:36.662Z,96930.41
2024-03-05T00:30:05.355Z,96929.75
2024-03-05T00:32:33.477Z,96937.25
2024-03-05T00:35:02.494Z,96935.44
2024-03-05T00:37:30.094Z,96938.72
2024-03-05T00:39:57.839Z,96924.00
2024-03-05T00:42:25.488Z,96933.66
2024-03-05T00:44:53.102Z,96933.22
2024-03-05T00:47:20.722Z,96921.88
2024-03-05T00:49:48.419Z,96932.84
2024-03-05T00:52:17.436Z,96932.00
2024-03-05T00:54:46.182Z,96937.97
2024-03-05T00:57:13.948Z,96930.50
2024-03-05T00:59:41.522Z,96937.97
2024-03-05T01:02:09.284Z,96939.56
2024-03-05T01:04:36.984Z,96939.75
2024-03-05T01:07:04.635Z,96939.66
2024-03-05T01:09:33.563Z,96941.84
2024-03-05T01:12:01.227Z,96948.03
2024-03-05T01:14:29.021Z,96952.44
2024-03-05T01:16:56.717Z,96950.63
2024-03-05T01:19:24.406Z,96948.97
2024-03-05T01:21:52.009Z,96956.50
2024-03-05T01:24:19.662Z,96948.72
2024-03-05T01:26:48.781Z,96943.72
2024-03-05T01:29:18.542Z,96941.09
2024-03-05T01:31:47.009Z,96940.41
2024-03-05T01:34:14.662Z,96933.88
2024-03-05T01:36:42.338Z,96934.91
2024-03-05T01:39:10.709Z,96935.56
2024-03-05T01:41:38.389Z,96942.78
2024-03-05T01:44:07.479Z,96945.75
2024-03-05T01:46:35.418Z,96939.44
2024-03-05T01:49:03.251Z,96937.03
2024-03-05T01:51:31.846Z,96942.28
2024-03-05T01:53:59.799Z,96939.53
2024-03-05T01:56:27.659Z,96937.31
2024-03-05T01:58:56.562Z,96941.22
2024-03-05T02:01:25.582Z,96939.75
2024-03-05T02:03:53.776Z,96937.31
2024-03-05T02:06:21.692Z,96937.31
2024-03-05T02:08:49.417Z,96939.13
2024-03-05T02:11:17.284Z,96941.75
2024-03-05T02:13:45.551Z,96934.94
2024-03-05T02:16:13.576Z,96933.25
2024-03-05T02:18:42.679Z,96935.56
2024-03-05T02:21:20.569Z,96927.34
2024-03-05T02:23:48.418Z,96931.34
2024-03-05T02:26:16.154Z,96932.59
2024-03-05T02:28:43.829Z,96929.69
2024-03-05T02:31:11.509Z,96926.31
2024-03-05T02:33:39.162Z,96928.94
2024-03-05T02:36:08.075Z,96931.75
2024-03-05T02:38:37.025Z,96930.50
2024-03-05T02:41:05.504Z,96927.56
2024-03-05T02:43:33.182Z,96927.56
2024-03-05T02:46:00.776Z,96925.22
2024-03-05T02:48:28.535Z,96922.06
2024-03-05T02:50:56.310Z,96921.22
2024-03-05T02:53:25.364Z,96918.19
2024-03-05T02:55:54.365Z,96915.44
2024-03-05T02:58:22.047Z,96916.63
2024-03-05T03:00:49.873Z,96914.72
2024-03-05T03:03:17.509Z,96909.69
2024-03-05T03:05:46.682Z,96908.22
2024-03-05T03:08:14.322Z,96911.34
2024-03-05T03:10:42.110Z,96895.53
2024-03-05T03:13:11.151Z,96897.41
2024-03-05T03:15:38.902Z,96903.28
2024-03-05T03:18:07.656Z,96893.31
2024-03-05T03:20:35.349Z,96887.88
2024-03-05T03:23:03.390Z,96893.84
2024-03-05T03:25:33.982Z,96893.31
2024-03-05T03:28:03.402Z,96904.66
2024-03-05T03:30:32.707Z,96904.00
2024-03-05T03:33:00.377Z,96912.56
2024-03-05T03:35:28.228Z,96911.06
2024-03-05T03:37:56.136Z,96908.41
2024-03-05T03:40:24.226Z,96916.00
2024-03-05T03:42:53.623Z,96931.13
2024-03-05T03:45:21.661Z,96935.69
2024-03-05T03:47:51.598Z,96920.75
2024-03-05T03:50:19.761Z,96938.56
2024-03-05T03:52:47.532Z,96939.06
2024-03-05T03:55:17.078Z,96949.06
2024-03-05T03:57:45.766Z,96947.91
2024-03-05T04:00:18.492Z,96937.47
2024-03-05T04:02:47.840Z,96944.97
2024-03-05T04:05:17.391Z,96963.34
2024-03-05T04:07:45.288Z,96964.00
2024-03-05T04:10:13.441Z,96966.13
2024-03-05T04:12:41.276Z,96965.56
2024-03-05T04:15:10.512Z,96973.16
2024-03-05T04:17:39.133Z,96953.69
2024-03-05T04:20:10.615Z,96975.91
2024-03-05T04:22:41.798Z,96972.84
2024-03-05T04:25:10.287Z,96968.75
2024-03-05T04:27:43.638Z,96984.94
2024-03-05T04:30:14.168Z,96983.91
2024-03-05T04:32:57.919Z,96987.22
2024-03-05T04:35:29.581Z,96984.84
2024-03-05T04:37:59.980Z,96988.91
2024-03-05T04:40:28.297Z,96980.00
2024-03-05T04:42:57.272Z,96995.78
2024-03-05T04:45:26.397Z,96992.09
2024-03-05T04:47:54.410Z,96989.78
2024-03-05T04:50:22.868Z,96992.63
2024-03-05T04:52:53.063Z,96985.38
2024-03-05T04:55:23.129Z,96987.69
2024-03-05T04:57:52.545Z,96983.50
2024-03-05T05:00:25.391Z,96978.88
2024-03-05T05:02:54.213Z,96972.69
2024-03-05T05:05:26.457Z,96982.69
2024-03-05T05:07:57.499Z,96984.28
2024-03-05T05:10:28.255Z,96977.84
2024-03-05T05:12:56.411Z,96978.38
2024-03-05T05:15:24.882Z,96965.91
2024-03-05T05:17:52.746Z,96974.81
2024-03-05T05:20:21.174Z,96963.13
2024-03-05T05:22:49.145Z,96979.41
2024-03-05T05:25:18.248Z,96983.19
2024-03-05T05:27:49.668Z,96975.84
2024-03-05T05:30:21.641Z,96968.03
2024-03-05T05:32:50.149Z,96971.13
2024-03-05T05:35:18.419Z,96970.06
2024-03-05T05:37:46.947Z,96977.94
2024-03-05T05:40:20.750Z,96978.59
2024-03-05T05:42:52.049Z,96971.00
2024-03-05T05:45:23.351Z,96969.03
2024-03-05T05:47:52.783Z,96977.34
2024-03-05T05:50:23.871Z,96982.63
2024-03-05T05:52:53.958Z,96986.00
2024-03-05T05:55:22.136Z,96974.31
2024-03-05T05:57:51.995Z,96974.13
2024-03-05T06:00:33.900Z,96988.47
2024-03-05T06:03:03.309Z,96976.69
2024-03-05T06:05:36.006Z,96989.97
2024-03-05T06:08:04.969Z,96979.56
2024-03-05T06:10:33.375Z,96988.19
2024-03-05T06:13:02.955Z,96997.53
2024-03-05T06:15:31.563Z,96985.78
2024-03-05T06:18:01.383Z,96999.03
2024-03-05T06:20:29.557Z,96993.69
2024-03-05T06:22:58.265Z,96993.56
2024-03-05T06:25:26.225Z,96994.19
2024-03-05T06:27:54.212Z,96989.13
2024-03-05T06:30:24.111Z,96992.31
2024-03-05T06:32:54.194Z,97001.44
2024-03-05T06:35:24.917Z,96992.31
2024-03-05T06:37:55.033Z,96997.34
2024-03-05T06:40:24.903Z,96961.50
2024-03-05T06:43:05.421Z,96985.56
2024-03-05T06:45:36.914Z,96991.78
2024-03-05T06:50:39.740Z,96994.19
2024-03-05T06:53:25.595Z,96999.88
2024-03-05T06:56:11.047Z,97014.19
2024-03-05T06:58:42.909Z,97010.72
2024-03-05T07:01:12.964Z,97003.03
2024-03-05T07:03:41.632Z,97004.09
2024-03-05T07:06:11.545Z,97019.63
2024-03-05T07:08:40.509Z,97014.19
2024-03-05T07:11:10.947Z,97014.19
2024-03-05T07:13:42.248Z,97012.50
2024-03-05T07:16:15.313Z,97021.31
2024-03-05T07:18:43.206Z,97009.94
2024-03-05T07:21:11.675Z,97015.44
2024-03-05T07:23:41.277Z,97015.44
2024-03-05T07:26:09.668Z,97018.78
2024-03-05T07:28:38.663Z,97005.22
2024-03-05T07:31:08.237Z,97019.00
2024-03-05T07:33:38.717Z,97022.38
2024-03-05T07:36:07.585Z,97020.38
2024-03-05T07:38:35.572Z,97018.06
2024-03-05T07:41:13.302Z,97021.31
2024-03-05T07:43:45.731Z,97022.16
2024-03-05T07:46:13.665Z,97018.69
2024-03-05T07:48:43.395Z,97019.44
2024-03-05T07:51:12.944Z,97018.78
2024-03-05T07:53:42.739Z,97033.63
2024-03-05T07:56:10.917Z,97023.84
2024-03-05T07:58:38.671Z,97024.16
2024-03-05T08:01:08.475Z,97013.94
2024-03-05T08:03:36.484Z,97025.09
2024-03-05T08:06:06.508Z,97036.22
2024-03-05T08:08:34.766Z,97043.06
2024-03-05T08:11:02.962Z,97021.72
2024-03-05T08:13:30.968Z,97041.19
2024-03-05T08:15:58.697Z,97040.00
2024-03-05T08:18:26.781Z,97036.25
2024-03-05T08:20:54.457Z,97034.13
2024-03-05T08:23:24.074Z,97034.00
2024-03-05T08:25:52.998Z,97043.59
2024-03-05T08:28:20.950Z,97037.19
2024-03-05T08:30:49.336Z,97038.66
2024-03-05T08:33:21.260Z,97047.91
2024-03-05T08:35:49.540Z,97048.34
2024-03-05T08:38:17.551Z,97049.09
2024-03-05T08:40:48.935Z,97035.81
2024-03-05T08:43:17.217Z,97033.06
2024-03-05T08:45:45.059Z,97046.88
2024-03-05T08:48:13.056Z,97048.84
2024-03-05T08:50:40.966Z,97044.13
2024-03-05T08:53:09.557Z,97054.53
2024-03-05T08:55:37.375Z,97036.16
2024-03-05T08:58:07.467Z,97042.16
2024-03-05T09:00:42.396Z,97052.75
2024-03-05T09:03:13.675Z,97025.31
2024-03-05T09:05:44.285Z,97046.75
2024-03-05T09:08:15.170Z,97057.50
2024-03-05T09:10:45.950Z,97058.03
2024-03-05T09:13:15.861Z,97059.28
2024-03-05T09:15:44.675Z,97051.78
2024-03-05T09:18:15.867Z,97064.75
2024-03-05T09:20:44.719Z,97049.72
2024-03-05T09:23:12.828Z,97061.81
2024-03-05T09:25:43.827Z,97065.25
2024-03-05T09:28:12.808Z,97069.78
2024-03-05T09:30:42.412Z,97066.69
2024-03-05T09:33:11.955Z,97080.47
2024-03-05T09:35:40.919Z,97078.81
2024-03-05T09:38:09.852Z,97083.13
2024-03-05T09:40:40.368Z,97078.72
2024-03-05T09:43:09.369Z,97086.44
2024-03-05T09:45:39.264Z,97085.38
2024-03-05T09:48:10.349Z,97076.38
2024-03-05T09:50:39.153Z,97077.22
2024-03-05T09:53:07.419Z,97084.59
2024-03-05T09:55:35.407Z,97081.78
2024-03-05T09:58:08.106Z,97086.28
2024-03-05T10:00:38.621Z,97085.84
2024-03-05T10:03:10.337Z,97099.94
2024-03-05T10:05:39.139Z,97099.66
2024-03-05T10:08:08.219Z,97103.13
2024-03-05T10:10:38.834Z,97102.13
2024-03-05T10:13:07.823Z,97096.03
2024-03-05T10:15:38.640Z,97099.69
2024-03-05T10:18:08.969Z,97105.22
2024-03-05T10:20:39.228Z,97107.31
2024-03-05T10:23:09.342Z,97108.19
2024-03-05T10:25:37.808Z,97103.91
2024-03-05T10:28:09.821Z,97109.84
2024-03-05T10:30:39.256Z,97106.47
2024-03-05T10:33:09.093Z,97112.91
2024-03-05T10:35:43.101Z,97111.88
2024-03-05T10:38:15.934Z,97107.78
2024-03-05T10:40:46.037Z,97103.13
2024-03-05T10:43:17.059Z,97099.72
2024-03-05T10:45:46.264Z,97112.94
2024-03-05T10:48:16.447Z,97103.25
2024-03-05T10:50:50.462Z,97103.59
2024-03-05T10:53:18.760Z,97099.72
2024-03-05T10:55:48.699Z,97100.66
2024-03-05T10:58:38.201Z,97103.66
2024-03-05T11:01:08.154Z,97108.47
2024-03-05T11:03:40.440Z,97108.59
2024-03-05T11:06:11.422Z,97112.81
2024-03-05T11:08:39.273Z,97110.38
2024-03-05T11:11:09.974Z,97111.88
2024-03-05T11:13:38.516Z,97110.50
2024-03-05T11:16:08.111Z,97113.13
2024-03-05T11:18:37.060Z,97112.91
2024-03-05T11:21:10.051Z,97110.78
2024-03-05T11:23:43.341Z,97112.56
2024-03-05T11:26:19.166Z,97111.00
2024-03-05T11:28:47.111Z,97109.34
2024-03-05T11:31:19.336Z,97102.72
2024-03-05T11:33:53.108Z,97110.59
2024-03-05T11:36:23.119Z,97091.47
2024-03-05T11:38:59.063Z,97107.28
2024-03-05T11:41:27.122Z,97112.69
2024-03-05T11:43:55.021Z,97121.94
2024-03-05T11:46:47.510Z,97120.00
2024-03-05T11:49:16.566Z,97107.19
2024-03-05T11:51:45.855Z,97115.47
2024-03-05T11:54:16.138Z,97123.03
2024-03-05T11:56:45.466Z,97115.09
2024-03-05T11:59:16.628Z,97122.88
2024-03-05T12:01:45.192Z,97110.88
2024-03-05T12:04:13.392Z,97108.72
2024-03-05T12:06:44.767Z,97112.97
2024-03-05T12:09:19.952Z,97100.78
2024-03-05T12:12:05.662Z,97119.09
2024-03-05T12:14:33.990Z,97115.09
2024-03-05T12:17:05.139Z,97091.84
2024-03-05T12:19:33.344Z,97111.13
2024-03-05T12:22:02.337Z,97103.47
2024-03-05T12:24:32.175Z,97092.84
2024-03-05T12:27:00.762Z,97101.66
2024-03-05T12:29:37.803Z,97090.81
2024-03-05T12:32:06.741Z,97102.00
2024-03-05T12:34:35.441Z,97100.41
2024-03-05T12:37:03.766Z,97097.97
2024-03-05T12:39:32.860Z,97079.56
2024-03-05T12:42:02.321Z,97089.88
2024-03-05T12:44:31.610Z,97090.28
2024-03-05T12:47:17.783Z,97091.13
2024-03-05T12:49:47.748Z,97093.19
2024-03-05T12:52:19.706Z,97095.19
2024-03-05T12:54:58.173Z,97094.53
2024-03-05T12:57:26.294Z,97106.31
2024-03-05T12:59:54.928Z,97101.53
2024-03-05T13:02:22.837Z,97097.72
2024-03-05T13:04:50.604Z,97099.31
2024-03-05T13:07:18.355Z,97102.25
2024-03-05T13:09:46.024Z,97105.41
2024-03-05T13:12:15.147Z,97103.63
2024-03-05T13:14:43.774Z,97089.13
2024-03-05T13:17:12.048Z,97109.81
2024-03-05T13:19:39.922Z,97106.66
2024-03-05T13:22:07.731Z,97103.50
2024-03-05T13:24:35.760Z,97111.00
2024-03-05T13:27:04.270Z,97107.84
2024-03-05T13:29:33.735Z,97102.16
2024-03-05T13:32:01.639Z,97102.72
2024-03-05T13:34:29.392Z,97102.50
2024-03-05T13:36:57.186Z,97105.41
2024-03-05T13:39:24.848Z,97101.84
2024-03-05T13:41:54.329Z,97097.22
2024-03-05T13:44:24.483Z,97102.34
2024-03-05T13:46:54.117Z,97101.16
2024-03-05T13:49:25.068Z,97103.72
2024-03-05T13:51:54.714Z,97106.66
2024-03-05T13:54:22.896Z,97106.38
2024-03-05T13:56:52.040Z,97109.66
2024-03-05T13:59:21.090Z,97116.97
2024-03-05T14:01:50.390Z,97119.81
2024-03-05T14:04:21.688Z,97128.00
2024-03-05T14:06:50.747Z,97120.75
2024-03-05T14:09:21.301Z,97118.88
2024-03-05T14:11:49.127Z,97116.69
2024-03-05T14:14:21.554Z,97116.78
2024-03-05T14:16:54.952Z,97126.81
2024-03-05T14:19:25.270Z,97121.00
2024-03-05T14:22:00.685Z,97115.88
2024-03-05T14:24:29.928Z,97081.72
2024-03-05T14:26:58.315Z,97083.84
2024-03-05T14:29:29.390Z,97087.28
2024-03-05T14:31:58.610Z,97114.25
2024-03-05T14:34:33.689Z,97071.44
2024-03-05T14:37:02.248Z,97086.38
2024-03-05T14:39:33.099Z,97084.75
2024-03-05T14:42:07.599Z,97079.53
2024-03-05T14:44:40.824Z,97087.78
2024-03-05T14:47:12.072Z,97126.72
2024-03-05T14:49:56.740Z,97084.25
2024-03-05T14:52:27.084Z,97127.34
2024-03-05T14:54:58.482Z,97110.34
2024-03-05T14:57:28.168Z,97112.19
2024-03-05T15:00:02.665Z,97112.81
2024-03-05T15:02:31.507Z,97129.59
2024-03-05T15:05:02.168Z,97131.13
2024-03-05T15:07:30.001Z,97086.75
2024-03-05T15:09:58.894Z,97104.22
2024-03-05T15:12:26.996Z,97091.16
2024-03-05T15:14:55.104Z,97080.59
2024-03-05T15:17:22.998Z,97097.44
2024-03-05T15:19:50.984Z,97101.75
2024-03-05T15:22:31.046Z,97132.78
2024-03-05T15:24:59.178Z,97110.50
2024-03-05T15:27:27.358Z,97124.78
2024-03-05T15:32:39.209Z,97124.59
2024-03-05T15:35:08.319Z,97124.03
2024-03-05T15:37:37.609Z,97123.53
2024-03-05T15:40:16.365Z,97095.09
2024-03-05T15:42:45.684Z,97093.56
2024-03-05T15:45:13.608Z,97098.81
2024-03-05T15:47:42.236Z,97096.53
2024-03-05T15:50:13.606Z,97124.25
2024-03-05T15:52:42.841Z,97121.31
2024-03-05T15:55:10.861Z,97117.22
2024-03-05T15:57:59.137Z,97118.06
2024-03-05T16:00:31.002Z,97131.00
2024-03-05T16:03:05.479Z,97128.63
2024-03-05T16:05:43.017Z,97136.00
2024-03-05T16:08:22.110Z,97138.97
2024-03-05T16:10:50.507Z,97141.50
2024-03-05T16:13:18.995Z,97148.38
2024-03-05T16:15:47.175Z,97142.41
2024-03-05T16:18:15.753Z,97144.91
2024-03-05T16:20:44.854Z,97149.59
2024-03-05T16:23:12.652Z,97142.03
2024-03-05T16:25:45.397Z,97146.69
2024-03-05T16:28:14.794Z,97152.50
2024-03-05T16:30:43.407Z,97151.97
2024-03-05T16:33:11.971Z,97147.75
2024-03-05T16:35:40.252Z,97160.97
2024-03-05T16:38:08.743Z,97162.69
2024-03-05T16:40:39.559Z,97165.00
2024-03-05T16:43:11.059Z,97153.19
2024-03-05T16:45:39.645Z,97163.38
2024-03-05T16:48:10.634Z,97169.09
2024-03-05T16:50:40.287Z,97179.31
2024-03-05T16:53:10.381Z,97180.97
2024-03-05T16:55:39.511Z,97170.88
2024-03-05T16:58:12.523Z,97177.84
2024-03-05T17:00:51.361Z,97178.69
2024-03-05T17:03:20.305Z,97167.72
2024-03-05T17:05:51.782Z,97179.34
2024-03-05T17:08:21.790Z,97174.34
2024-03-05T17:10:50.504Z,97175.09
2024-03-05T17:13:22.957Z,97187.75
2024-03-05T17:15:59.258Z,97187.09
2024-03-05T17:18:33.641Z,97191.31
2024-03-05T17:21:05.823Z,97187.53
2024-03-05T17:23:49.159Z,97168.69
2024-03-05T17:26:19.441Z,97196.34
2024-03-05T17:28:47.407Z,97200.91
2024-03-05T17:31:20.501Z,97181.41
2024-03-05T17:33:49.167Z,97200.16
2024-03-05T17:36:19.568Z,97200.38
2024-03-05T17:38:47.366Z,97216.56
2024-03-05T17:41:27.942Z,97222.47
2024-03-05T17:44:20.510Z,97224.94
2024-03-05T17:47:02.321Z,97232.94
2024-03-05T17:49:34.742Z,97228.03
2024-03-05T17:52:14.658Z,97235.72
2024-03-05T17:55:09.291Z,97241.00
2024-03-05T17:57:38.645Z,97233.00
2024-03-05T18:00:21.911Z,97231.75
2024-03-05T18:02:52.007Z,97239.31
2024-03-05T18:05:20.537Z,97243.34
2024-03-05T18:07:51.238Z,97237.03
2024-03-05T18:10:22.943Z,97248.84
2024-03-05T18:12:51.533Z,97252.72
2024-03-05T18:15:21.595Z,97233.44
2024-03-05T18:18:03.589Z,97252.63
2024-03-05T18:20:33.059Z,97244.56
2024-03-05T18:23:06.678Z,97248.19
2024-03-05T18:25:48.016Z,97238.78
2024-03-05T18:28:33.522Z,97246.91
2024-03-05T18:31:03.688Z,97253.44
2024-03-05T18:33:36.662Z,97242.47
2024-03-05T18:36:05.803Z,97252.03
2024-03-05T18:38:33.736Z,97250.00
2024-03-05T18:41:03.472Z,97255.06
2024-03-05T18:43:31.945Z,97271.28
2024-03-05T18:46:02.034Z,97251.31
2024-03-05T18:48:44.096Z,97249.16
2024-03-05T18:51:15.350Z,97248.25
2024-03-05T18:53:50.037Z,97263.00
2024-03-05T18:56:18.627Z,97253.03
2024-03-05T18:59:03.721Z,97255.88
2024-03-05T19:01:35.644Z,97260.72
2024-03-05T19:04:05.681Z,97261.75
2024-03-05T19:06:38.200Z,97255.00
2024-03-05T19:09:06.830Z,97266.81
2024-03-05T19:11:34.994Z,97255.72
2024-03-05T19:14:02.634Z,97251.97
2024-03-05T19:16:30.669Z,97253.09
2024-03-05T19:18:58.870Z,97248.25
2024-03-05T19:21:27.754Z,97246.56
2024-03-05T19:24:15.948Z,97272.66
2024-03-05T19:26:44.612Z,97260.41
2024-03-05T19:29:14.181Z,97255.16
2024-03-05T19:31:43.642Z,97275.78
2024-03-05T19:34:11.857Z,97263.81
2024-03-05T19:36:40.750Z,97273.06
2024-03-05T19:39:14.043Z,97271.78
2024-03-05T19:41:56.185Z,97273.06
2024-03-05T19:44:36.105Z,97285.91
2024-03-05T19:47:04.965Z,97284.88
2024-03-05T19:49:32.877Z,97276.53
2024-03-05T19:52:02.800Z,97288.88
2024-03-05T19:54:35.888Z,97287.44
2024-03-05T19:57:04.708Z,97285.59
2024-03-05T19:59:44.928Z,97284.56
2024-03-05T20:02:26.849Z,97288.78
2024-03-05T20:07:53.396Z,97275.91
2024-03-05T20:10:37.736Z,97285.53
2024-03-05T20:13:10.207Z,97288.28
2024-03-05T20:18:14.264Z,97279.34
2024-03-05T20:20:42.688Z,97291.56
2024-03-05T20:23:10.570Z,97291.13
2024-03-05T20:25:39.753Z,97295.56
2024-03-05T20:28:11.250Z,97295.38
2024-03-05T20:30:38.861Z,97296.91
2024-03-05T20:33:06.830Z,97293.53
2024-03-05T20:35:34.481Z,97297.66
2024-03-05T20:38:02.359Z,97300.47
2024-03-05T20:40:29.966Z,97300.34
2024-03-05T20:42:59.150Z,97299.50
2024-03-05T20:45:26.869Z,97302.69
2024-03-05T20:47:54.477Z,97306.34
2024-03-05T20:50:22.240Z,97312.31
2024-03-05T20:52:49.932Z,97309.81
2024-03-05T20:55:17.642Z,97300.75
2024-03-05T20:57:47.888Z,97302.81
2024-03-05T21:00:20.417Z,97304.72
2024-03-05T21:02:50.336Z,97311.75
2024-03-05T21:05:19.624Z,97316.91
2024-03-05T21:07:47.867Z,97311.94
2024-03-05T21:10:16.668Z,97317.69
2024-03-05T21:12:44.309Z,97317.38
2024-03-05T21:15:13.630Z,97317.19
2024-03-05T21:17:43.184Z,97322.25
2024-03-05T21:20:12.880Z,97331.94
2024-03-05T21:22:41.728Z,97329.59
2024-03-05T21:25:10.317Z,97331.00
2024-03-05T21:27:39.479Z,97331.63
2024-03-05T21:30:08.980Z,97328.28
2024-03-05T21:32:37.570Z,97328.34
2024-03-05T21:35:07.310Z,97337.16
2024-03-05T21:37:35.600Z,97327.97
2024-03-05T21:40:05.959Z,97336.25
2024-03-05T21:42:33.706Z,97335.56
2024-03-05T21:45:01.603Z,97335.78
2024-03-05T21:47:29.426Z,97337.19
2024-03-05T21:49:58.426Z,97341.28
2024-03-05T21:52:27.513Z,97334.38
2024-03-05T21:54:55.320Z,97328.06
2024-03-05T21:57:22.941Z,97332.94
2024-03-05T21:59:50.575Z,97334.38
2024-03-05T22:02:18.400Z,97325.75
2024-03-05T22:04:46.155Z,97331.16
2024-03-05T22:07:13.892Z,97327.06
2024-03-05T22:09:42.880Z,97329.13
2024-03-05T22:12:10.712Z,97336.97
2024-03-05T22:14:38.357Z,97339.25
2024-03-05T22:17:09.896Z,97340.00
2024-03-05T22:19:38.552Z,97336.13
2024-03-05T22:22:06.252Z,97339.06
2024-03-05T22:24:33.927Z,97339.94
2024-03-05T22:27:03.235Z,97346.34
2024-03-05T22:29:30.846Z,97340.72
2024-03-05T22:31:58.536Z,97339.72
2024-03-05T22:34:26.985Z,97330.13
2024-03-05T22:36:54.623Z,97331.56
2024-03-05T22:39:22.398Z,97334.25
2024-03-05T22:41:50.075Z,97339.13
2024-03-05T22:44:19.208Z,97337.06
2024-03-05T22:46:47.052Z,97345.69
2024-03-05T22:49:15.356Z,97340.50
2024-03-05T22:51:43.115Z,97346.50
2024-03-05T22:54:10.703Z,97346.56
2024-03-05T22:56:38.429Z,97346.84
2024-03-05T22:59:06.129Z,97358.75
2024-03-05T23:01:35.192Z,97361.41
2024-03-05T23:04:03.405Z,97370.75
2024-03-05T23:06:31.149Z,97376.25
2024-03-05T23:08:58.797Z,97379.34
2024-03-05T23:11:26.505Z,97375.16
2024-03-05T23:13:54.209Z,97371.44
2024-03-05T23:16:21.891Z,97368.22
2024-03-05T23:18:50.928Z,97368.56
2024-03-05T23:21:18.838Z,97368.81
2024-03-05T23:23:50.442Z,97371.69
2024-03-05T23:26:19.045Z,97373.47
2024-03-05T23:28:46.874Z,97364.00
2024-03-05T23:31:14.448Z,97371.78
2024-03-05T23:33:42.048Z,97366.47
2024-03-05T23:36:11.051Z,97366.63
2024-03-05T23:38:38.888Z,97371.63
2024-03-05T23:41:16.613Z,97368.06
2024-03-05T23:43:48.700Z,97381.84
2024-03-05T23:46:16.395Z,97373.06
2024-03-05T23:48:43.995Z,97386.50
2024-03-05T23:51:13.163Z,97377.66
2024-03-05T23:53:40.857Z,97374.53
2024-03-05T23:56:09.230Z,97386.59
2024-03-05T23:58:36.904Z,97396.50
